< < Back
Terminal Aerodrome Forecast


Current Version              Previous Versions:   1  2  3  4  5  6  7  8  9  

Terminal Aerodrome Forecast

365
FTUS42 KTAE 261700
TAFABY
TAF
KABY 261729Z 2618/2718 34008KT P6SM OVC015
     FM262000 33008KT P6SM BKN025
     FM262200 33008KT P6SM BKN030
     FM270400 35006KT P6SM SCT200=



Latest METAR

110
SAUS70 KWBC 270400 RRB
MTRABY
METAR KABY 270353Z AUTO 34006KT 10SM OVC033 06/03 A3018 RMK AO2 SLP220
T00610033


USA.gov is the U.S. government's official web portal to all federal, state and local government web resources and services.